Time;durP1;ratioP1;P1;durP2;ratioP2;P2;SDS_P1;SDS_P2;PMS_P1;PMS_P2;Temp;Humidity;BMP_temperature;BMP_pressure;BME280_temperature;BME280_humidity;BME280_pressure;Samples;Min_cycle;Max_cycle;Signal;HPM_P1;HPM_P2
2021/05/18 00:02:10;;;;;;;10.10;3.90;;;9.80;99.90;;;;;;5070420;28;20029;-68
2021/05/18 00:04:37;;;;;;;6.65;3.42;;;9.80;99.90;;;;;;5072743;28;20036;-68
2021/05/18 00:07:10;;;;;;;8.43;3.50;;;9.80;99.90;;;;;;5070022;28;20703;-68
2021/05/18 00:12:20;;;;;;;9.95;4.30;;;9.80;99.90;;;;;;5070404;28;20078;-67
2021/05/18 00:14:49;;;;;;;8.68;4.18;;;9.80;99.90;;;;;;5067470;28;20032;-67
2021/05/18 00:17:14;;;;;;;7.03;3.60;;;9.80;99.90;;;;;;5062808;28;20028;-67
2021/05/18 00:19:41;;;;;;;7.82;3.20;;;9.80;99.90;;;;;;5068970;28;20111;-68
2021/05/18 00:22:08;;;;;;;7.30;3.40;;;9.80;99.90;;;;;;5073132;28;20044;-66
2021/05/18 00:24:36;;;;;;;6.40;3.90;;;9.80;99.90;;;;;;5070675;28;20487;-68
2021/05/18 00:27:03;;;;;;;7.03;4.10;;;9.80;99.90;;;;;;5069316;28;20021;-68
2021/05/18 00:29:32;;;;;;;8.27;3.92;;;9.80;99.90;;;;;;5069915;28;20359;-67
2021/05/18 00:31:57;;;;;;;8.10;3.90;;;9.90;99.90;;;;;;5068616;28;20021;-67
2021/05/18 00:34:23;;;;;;;8.02;3.95;;;9.90;99.90;;;;;;5069363;28;20029;-67
2021/05/18 00:36:51;;;;;;;7.18;4.22;;;9.90;99.90;;;;;;5067835;28;20032;-68
2021/05/18 00:39:18;;;;;;;7.40;4.25;;;9.90;99.90;;;;;;5069962;28;20514;-68
2021/05/18 00:41:46;;;;;;;8.15;3.75;;;9.90;99.90;;;;;;5068981;28;20029;-68
2021/05/18 00:44:15;;;;;;;7.78;4.00;;;10.00;99.90;;;;;;5067104;28;20032;-68
2021/05/18 00:46:43;;;;;;;16.10;4.57;;;10.00;99.90;;;;;;5069688;28;20035;-67
2021/05/18 00:49:11;;;;;;;8.50;4.50;;;10.00;99.90;;;;;;5067849;28;20031;-68
2021/05/18 00:51:40;;;;;;;8.02;3.75;;;10.00;99.90;;;;;;5067586;28;20036;-68
2021/05/18 00:54:16;;;;;;;8.27;3.97;;;10.00;99.90;;;;;;5067481;28;20081;-68
2021/05/18 00:59:12;;;;;;;9.30;4.35;;;10.10;99.90;;;;;;5068756;28;20089;-68
2021/05/18 01:01:39;;;;;;;6.90;4.07;;;10.10;99.90;;;;;;5069632;28;20367;-67
2021/05/18 01:04:05;;;;;;;7.68;3.60;;;10.10;99.90;;;;;;5068887;28;20083;-68
2021/05/18 01:06:33;;;;;;;7.32;3.42;;;10.10;99.90;;;;;;5050252;28;20107;-68
2021/05/18 01:09:13;;;;;;;9.15;3.97;;;10.10;99.90;;;;;;5067982;28;20536;-68
2021/05/18 01:11:40;;;;;;;7.25;3.70;;;10.10;99.90;;;;;;5068076;28;20098;-68
2021/05/18 01:14:11;;;;;;;6.88;3.65;;;10.10;99.90;;;;;;5049919;28;20432;-68
2021/05/18 01:16:40;;;;;;;7.43;3.83;;;10.20;99.90;;;;;;5068408;28;20040;-68
2021/05/18 01:19:06;;;;;;;6.35;3.72;;;10.20;99.90;;;;;;5068797;28;20032;-68
2021/05/18 01:21:31;;;;;;;8.45;3.70;;;10.20;99.90;;;;;;5067717;28;20334;-67
2021/05/18 01:23:57;;;;;;;9.05;3.92;;;10.20;99.90;;;;;;5069277;28;20039;-68
2021/05/18 01:26:23;;;;;;;6.78;3.50;;;10.20;99.90;;;;;;5067770;28;20042;-68
2021/05/18 01:28:48;;;;;;;7.75;4.40;;;10.20;99.90;;;;;;5069410;28;20032;-67
2021/05/18 01:31:17;;;;;;;10.80;4.82;;;10.20;99.90;;;;;;5076437;28;20028;-68
2021/05/18 01:33:45;;;;;;;12.27;4.40;;;10.20;99.90;;;;;;5077452;28;20082;-68
2021/05/18 01:36:12;;;;;;;7.05;4.35;;;10.20;99.90;;;;;;5056317;28;20052;-68
2021/05/18 01:43:54;;;;;;;8.15;4.35;;;10.20;99.90;;;;;;5068183;28;20047;-68
2021/05/18 01:46:23;;;;;;;10.10;5.35;;;10.20;99.90;;;;;;5066974;28;20032;-68
2021/05/18 01:48:58;;;;;;;10.05;5.68;;;10.20;99.90;;;;;;5068368;28;20032;-68
2021/05/18 01:51:32;;;;;;;9.93;4.88;;;10.20;99.90;;;;;;5067113;28;20029;-68
2021/05/18 01:54:00;;;;;;;8.88;5.60;;;10.20;99.90;;;;;;5056285;28;20035;-68
2021/05/18 01:56:48;;;;;;;10.38;6.10;;;10.20;99.90;;;;;;5082597;28;20112;-68
2021/05/18 01:59:19;;;;;;;8.50;5.60;;;10.20;99.90;;;;;;5066919;28;20021;-68
2021/05/18 02:01:46;;;;;;;10.77;5.20;;;10.20;99.90;;;;;;5066820;28;20024;-68
2021/05/18 02:04:24;;;;;;;7.35;5.20;;;10.20;99.90;;;;;;5066431;28;20129;-68
2021/05/18 02:06:50;;;;;;;9.07;4.72;;;10.20;99.90;;;;;;5073275;28;20055;-68
2021/05/18 02:09:16;;;;;;;8.02;4.70;;;10.20;99.90;;;;;;5074947;28;20044;-68
2021/05/18 02:11:42;;;;;;;9.63;4.85;;;10.20;99.90;;;;;;5052100;28;20017;-68
2021/05/18 02:14:17;;;;;;;6.60;4.43;;;10.10;99.90;;;;;;5068721;28;20028;-68
2021/05/18 02:16:45;;;;;;;8.63;4.82;;;10.20;99.90;;;;;;5068398;28;20059;-68
2021/05/18 02:26:52;;;;;;;6.75;4.40;;;10.00;99.90;;;;;;5069697;28;20472;-68
2021/05/18 02:29:17;;;;;;;8.32;4.78;;;10.00;99.90;;;;;;5057350;28;20449;-68
2021/05/18 02:31:46;;;;;;;7.40;4.70;;;9.90;99.90;;;;;;5066701;28;20064;-68
2021/05/18 02:34:11;;;;;;;9.13;5.13;;;9.90;99.90;;;;;;5068299;28;20024;-68
2021/05/18 02:36:39;;;;;;;8.73;4.90;;;9.80;99.90;;;;;;5072347;28;20162;-68
2021/05/18 02:39:05;;;;;;;7.40;5.35;;;9.80;99.90;;;;;;5068328;28;20369;-68
2021/05/18 02:41:31;;;;;;;8.02;4.68;;;9.80;99.90;;;;;;5068080;28;20029;-68
2021/05/18 02:44:23;;;;;;;8.80;5.30;;;9.70;99.90;;;;;;5067160;28;20030;-68
2021/05/18 02:49:32;;;;;;;9.45;4.93;;;9.60;99.90;;;;;;5068788;28;20157;-68
2021/05/18 02:52:00;;;;;;;9.30;5.57;;;9.60;99.90;;;;;;5075481;28;20039;-68
2021/05/18 02:54:28;;;;;;;11.02;5.35;;;9.50;99.90;;;;;;5075534;28;20036;-69
2021/05/18 02:59:22;;;;;;;6.10;4.40;;;9.50;99.90;;;;;;5067792;28;20037;-68
2021/05/18 03:01:58;;;;;;;7.28;5.05;;;9.40;99.90;;;;;;5069544;28;20381;-68
2021/05/18 03:04:26;;;;;;;10.05;4.68;;;9.50;99.90;;;;;;5069188;28;20119;-68
2021/05/18 03:06:54;;;;;;;8.38;4.43;;;9.40;99.90;;;;;;5070923;28;20086;-68
2021/05/18 03:09:25;;;;;;;6.43;4.32;;;9.40;99.90;;;;;;5071524;28;20033;-68
2021/05/18 03:11:52;;;;;;;7.55;4.60;;;9.30;99.90;;;;;;5071193;28;20040;-68
2021/05/18 03:14:17;;;;;;;8.45;4.25;;;9.30;99.90;;;;;;5070530;28;20116;-68
2021/05/18 03:16:46;;;;;;;9.23;3.90;;;9.30;99.90;;;;;;5072328;28;20169;-68
2021/05/18 03:19:15;;;;;;;7.55;4.32;;;9.20;99.90;;;;;;5068997;28;20024;-68
2021/05/18 03:21:43;;;;;;;9.32;4.28;;;9.20;99.90;;;;;;5071941;28;20493;-67
2021/05/18 03:24:09;;;;;;;9.20;4.60;;;9.20;99.90;;;;;;5069375;28;20066;-68
2021/05/18 03:26:36;;;;;;;8.80;4.80;;;9.20;99.90;;;;;;5071652;28;20343;-68
2021/05/18 03:29:19;;;;;;;11.43;4.97;;;9.10;99.90;;;;;;5069024;28;20032;-68
2021/05/18 03:34:35;;;;;;;7.10;4.30;;;9.10;99.90;;;;;;5060391;28;20421;-68
2021/05/18 03:37:08;;;;;;;8.90;3.83;;;9.10;99.90;;;;;;5071199;28;20046;-68
2021/05/18 03:39:34;;;;;;;8.13;5.00;;;9.10;99.90;;;;;;5069131;28;20266;-68
2021/05/18 03:42:10;;;;;;;9.18;3.78;;;9.10;99.90;;;;;;5069930;28;20028;-68
2021/05/18 03:52:40;;;;;;;9.20;4.13;;;9.10;99.90;;;;;;5070244;28;20042;-68
2021/05/18 03:58:35;;;;;;;6.72;3.55;;;9.10;99.90;;;;;;5068636;28;20082;-68
2021/05/18 04:03:35;;;;;;;7.50;3.25;;;9.10;99.90;;;;;;5069763;28;20078;-68
2021/05/18 04:16:57;;;;;;;19.17;3.70;;;9.10;99.90;;;;;;5014819;28;20034;-68
2021/05/18 04:19:27;;;;;;;8.38;2.70;;;9.20;99.90;;;;;;5071132;28;20028;-68
2021/05/18 04:22:00;;;;;;;6.80;2.72;;;9.20;99.90;;;;;;5069388;28;20042;-68
2021/05/18 04:24:44;;;;;;;7.25;2.70;;;9.30;99.90;;;;;;5068009;28;20028;-67
2021/05/18 04:54:13;;;;;;;7.45;2.53;;;9.80;99.90;;;;;;5069235;28;20051;-67
2021/05/18 04:59:14;;;;;;;7.55;3.03;;;9.80;99.90;;;;;;5069900;28;20157;-67
2021/05/18 05:06:59;;;;;;;5.72;2.50;;;10.00;99.90;;;;;;5068861;28;20025;-67
2021/05/18 05:09:33;;;;;;;5.07;2.30;;;10.10;99.90;;;;;;5067082;28;20031;-67
2021/05/18 05:14:49;;;;;;;8.68;3.00;;;10.10;99.90;;;;;;5068935;28;20081;-67
2021/05/18 05:17:17;;;;;;;6.65;2.50;;;10.20;99.90;;;;;;5068013;28;20032;-68
2021/05/18 05:19:43;;;;;;;5.30;2.75;;;10.20;99.90;;;;;;5068019;28;20039;-68
2021/05/18 05:22:09;;;;;;;8.48;2.78;;;10.30;99.90;;;;;;5065485;28;20549;-68
2021/05/18 05:24:41;;;;;;;8.05;3.08;;;10.30;99.90;;;;;;5057133;28;20032;-67
2021/05/18 05:27:11;;;;;;;7.00;3.35;;;10.30;99.90;;;;;;5068515;28;20372;-67
2021/05/18 05:29:36;;;;;;;8.60;3.35;;;10.20;99.90;;;;;;5068939;28;20060;-68
2021/05/18 05:32:02;;;;;;;9.07;3.20;;;10.30;99.90;;;;;;5067066;28;20575;-67
2021/05/18 05:34:31;;;;;;;8.80;3.47;;;10.40;99.90;;;;;;5068035;28;20110;-68
2021/05/18 05:36:56;;;;;;;6.43;3.28;;;10.40;99.90;;;;;;5068292;28;20024;-68
2021/05/18 05:39:27;;;;;;;6.53;3.10;;;10.40;99.90;;;;;;5071223;28;20047;-67
2021/05/18 05:41:55;;;;;;;5.55;3.22;;;10.40;99.90;;;;;;5068861;28;20028;-67
2021/05/18 05:44:22;;;;;;;7.43;3.55;;;10.40;99.90;;;;;;5068774;28;20036;-67
2021/05/18 05:46:48;;;;;;;7.47;3.30;;;10.50;99.90;;;;;;5068809;28;20032;-67
2021/05/18 05:49:13;;;;;;;9.15;3.30;;;10.50;99.90;;;;;;5069501;28;20038;-67
2021/05/18 05:51:39;;;;;;;6.63;3.00;;;10.60;99.90;;;;;;5071148;28;20064;-67
2021/05/18 05:54:07;;;;;;;7.80;3.70;;;10.60;99.90;;;;;;5076925;28;20023;-67
2021/05/18 05:56:35;;;;;;;5.45;3.22;;;10.70;99.90;;;;;;5068629;28;20033;-67
2021/05/18 05:59:07;;;;;;;7.03;3.13;;;10.80;99.90;;;;;;5066808;28;20036;-67
2021/05/18 06:01:35;;;;;;;5.57;3.20;;;10.80;99.90;;;;;;5075389;28;20453;-67
2021/05/18 06:04:03;;;;;;;7.35;3.60;;;10.80;99.90;;;;;;5056938;28;20355;-67
2021/05/18 06:06:29;;;;;;;6.18;3.13;;;10.80;99.90;;;;;;5067826;28;20040;-67
2021/05/18 06:08:54;;;;;;;7.20;3.05;;;10.90;99.90;;;;;;5067690;28;20032;-67
2021/05/18 06:17:16;;;;;;;7.28;3.40;;;10.90;99.90;;;;;;5071604;28;20032;-67
2021/05/18 06:43:36;;;;;;;9.73;3.45;;;11.30;99.90;;;;;;5079318;28;20100;-67
2021/05/18 06:46:24;;;;;;;7.45;2.90;;;11.20;99.90;;;;;;5076107;28;20597;-67
2021/05/18 06:48:57;;;;;;;6.47;2.80;;;11.30;99.90;;;;;;5079280;28;20028;-67
2021/05/18 06:51:25;;;;;;;7.05;2.80;;;11.30;99.90;;;;;;5080408;28;20454;-67
2021/05/18 06:53:52;;;;;;;7.53;3.25;;;11.30;99.90;;;;;;5077551;28;20040;-67
2021/05/18 06:56:17;;;;;;;6.43;2.58;;;11.30;99.90;;;;;;5082114;28;20081;-67
2021/05/18 07:01:09;;;;;;;7.55;3.10;;;11.30;99.90;;;;;;5083393;28;20032;-67
2021/05/18 07:03:59;;;;;;;7.30;3.22;;;11.30;99.90;;;;;;5082504;28;20016;-67
2021/05/18 07:09:07;;;;;;;7.90;3.17;;;11.40;99.90;;;;;;5081964;28;20028;-67
2021/05/18 07:11:33;;;;;;;5.78;3.00;;;11.40;99.90;;;;;;5077464;28;20038;-67
2021/05/18 07:14:01;;;;;;;6.22;2.92;;;11.50;99.90;;;;;;5080776;28;20031;-67
2021/05/18 07:16:27;;;;;;;6.70;2.90;;;11.60;99.90;;;;;;5080789;28;20028;-67
2021/05/18 07:18:55;;;;;;;27.95;21.20;;;11.70;99.90;;;;;;5077285;28;20032;-67
2021/05/18 07:21:21;;;;;;;7.18;3.25;;;11.80;99.90;;;;;;5068571;28;20024;-67
2021/05/18 07:23:51;;;;;;;5.90;2.70;;;11.80;99.90;;;;;;5076492;28;20044;-66
2021/05/18 07:26:17;;;;;;;5.82;2.92;;;11.90;99.90;;;;;;5078070;28;20692;-67
2021/05/18 07:28:45;;;;;;;7.60;3.08;;;12.10;99.90;;;;;;5078335;28;20108;-67
2021/05/18 07:31:11;;;;;;;3.70;2.33;;;12.20;99.90;;;;;;5077241;28;20058;-67
2021/05/18 07:33:38;;;;;;;6.70;2.88;;;12.10;99.90;;;;;;5074881;28;20046;-67
2021/05/18 07:36:08;;;;;;;5.30;2.47;;;12.20;99.90;;;;;;5074941;28;20094;-66
2021/05/18 07:38:40;;;;;;;5.25;2.60;;;12.30;99.90;;;;;;5076369;28;20090;-67
2021/05/18 07:41:06;;;;;;;5.93;2.58;;;12.40;99.90;;;;;;5079601;28;20059;-66
2021/05/18 07:43:34;;;;;;;6.28;2.40;;;12.50;99.90;;;;;;5078387;28;20064;-67
2021/05/18 07:46:04;;;;;;;7.40;2.60;;;12.50;99.90;;;;;;5075458;28;20050;-67
2021/05/18 07:48:39;;;;;;;5.00;2.30;;;12.60;99.90;;;;;;5075203;28;20027;-67
2021/05/18 07:59:25;;;;;;;5.88;3.15;;;12.40;99.90;;;;;;5076742;28;20105;-67
2021/05/18 08:07:24;;;;;;;5.57;2.45;;;11.60;99.90;;;;;;5079192;28;20104;-67
2021/05/18 08:10:13;;;;;;;6.50;2.50;;;11.70;99.90;;;;;;5077018;28;20135;-67
2021/05/18 08:12:39;;;;;;;5.25;2.55;;;11.60;99.90;;;;;;5078371;28;20431;-67
2021/05/18 10:26:52;;;;;;;0.73;0.50;;;11.80;99.90;;;;;;5085066;28;20056;-65
2021/05/18 10:35:53;;;;;;;1.33;0.70;;;12.10;99.90;;;;;;5081497;28;20035;-66
2021/05/18 10:38:40;;;;;;;0.90;0.82;;;12.30;99.90;;;;;;5080788;28;20032;-65
2021/05/18 10:41:08;;;;;;;1.48;0.70;;;12.40;99.90;;;;;;5080889;28;20036;-66
2021/05/18 10:43:39;;;;;;;6.10;3.85;;;12.50;99.90;;;;;;5078965;28;20457;-66
2021/05/18 10:46:12;;;;;;;1.17;0.90;;;12.60;99.90;;;;;;5075776;28;20031;-65
2021/05/18 10:48:37;;;;;;;2.70;0.90;;;12.50;99.90;;;;;;5079317;28;20033;-65
2021/05/18 10:51:30;;;;;;;1.88;0.90;;;12.60;99.90;;;;;;5076885;28;20020;-66
2021/05/18 10:54:14;;;;;;;1.10;0.60;;;12.80;99.90;;;;;;5080918;28;20016;-66
2021/05/18 10:59:39;;;;;;;1.30;0.70;;;13.00;99.90;;;;;;5077364;28;20032;-65
2021/05/18 11:02:18;;;;;;;2.50;1.13;;;13.00;99.00;;;;;;5079236;28;20035;-66
2021/05/18 11:04:54;;;;;;;1.83;1.10;;;13.10;99.90;;;;;;5080482;28;20097;-66
2021/05/18 11:07:30;;;;;;;2.00;1.00;;;13.10;99.90;;;;;;5078333;28;20024;-66
2021/05/18 11:09:56;;;;;;;3.22;1.10;;;13.10;99.90;;;;;;5078025;28;20120;-66
2021/05/18 11:12:25;;;;;;;3.40;1.23;;;13.10;99.90;;;;;;5080239;28;20108;-66
2021/05/18 11:15:02;;;;;;;2.60;1.42;;;13.20;99.90;;;;;;5079694;28;20040;-66
2021/05/18 11:17:32;;;;;;;2.35;1.08;;;13.30;99.90;;;;;;5077118;28;20396;-66
2021/05/18 11:20:12;;;;;;;2.70;1.20;;;13.30;99.90;;;;;;5077809;28;20460;-65
2021/05/18 11:25:34;;;;;;;5.13;1.23;;;13.10;99.90;;;;;;5078257;28;20080;-67
2021/05/18 11:28:37;;;;;;;2.78;1.65;;;13.10;99.90;;;;;;5066222;28;20073;-65
2021/05/18 11:31:11;;;;;;;1.38;1.05;;;13.10;99.40;;;;;;5083508;28;20058;-66
2021/05/18 11:33:45;;;;;;;2.25;1.30;;;13.10;99.90;;;;;;5078419;28;20029;-66
2021/05/18 11:36:16;;;;;;;2.25;1.13;;;13.20;99.90;;;;;;5078728;28;20036;-66
2021/05/18 11:39:01;;;;;;;2.08;1.30;;;13.20;99.90;;;;;;5079210;28;20139;-65
2021/05/18 11:41:35;;;;;;;2.60;1.40;;;13.40;99.90;;;;;;5077769;28;20020;-65
2021/05/18 11:44:01;;;;;;;2.10;1.40;;;13.40;99.90;;;;;;5079452;28;20031;-66
2021/05/18 11:46:28;;;;;;;1.90;1.30;;;13.30;93.90;;;;;;5079342;28;20036;-66
2021/05/18 11:49:07;;;;;;;2.63;1.40;;;13.20;99.20;;;;;;5079748;28;20020;-65
2021/05/18 11:51:45;;;;;;;5.65;3.08;;;13.20;98.70;;;;;;5078899;28;20400;-66
2021/05/18 11:54:12;;;;;;;3.03;1.40;;;13.20;96.20;;;;;;5065153;28;20388;-69
2021/05/18 11:56:38;;;;;;;2.63;1.30;;;13.20;98.50;;;;;;4726944;28;10000171;-66
2021/05/18 11:59:07;;;;;;;2.55;1.60;;;13.10;93.00;;;;;;5073564;28;20079;-65
2021/05/18 12:01:47;;;;;;;1.95;1.33;;;13.30;94.20;;;;;;5076485;28;20091;-65
2021/05/18 12:04:18;;;;;;;1.30;1.20;;;13.50;99.90;;;;;;5076944;28;20034;-65
2021/05/18 12:07:01;;;;;;;2.58;1.20;;;13.60;98.70;;;;;;5079569;28;20043;-65
2021/05/18 12:09:31;;;;;;;2.00;1.10;;;13.80;99.90;;;;;;5072395;28;20020;-66
2021/05/18 12:12:00;;;;;;;1.88;0.90;;;13.90;99.90;;;;;;5074933;28;20334;-65
2021/05/18 12:14:28;;;;;;;1.88;0.80;;;13.90;93.30;;;;;;5074224;28;20474;-66
2021/05/18 12:16:54;;;;;;;1.25;0.80;;;13.90;97.60;;;;;;5074663;28;20020;-66
2021/05/18 12:19:22;;;;;;;1.08;0.70;;;14.10;99.90;;;;;;5075287;28;20043;-65
2021/05/18 12:21:55;;;;;;;1.55;0.68;;;14.20;98.40;;;;;;5076174;28;20048;-65
2021/05/18 12:24:22;;;;;;;1.17;0.70;;;14.00;83.50;;;;;;5072946;28;20542;-66
2021/05/18 12:26:59;;;;;;;1.65;0.80;;;13.90;89.10;;;;;;5076137;28;20075;-66
2021/05/18 12:29:29;;;;;;;1.05;0.63;;;13.90;91.50;;;;;;5076687;28;20103;-66
2021/05/18 12:32:02;;;;;;;1.17;0.75;;;14.10;94.80;;;;;;4726353;28;10000533;-66
2021/05/18 12:34:29;;;;;;;1.35;0.50;;;13.90;88.30;;;;;;5072648;28;20035;-66
2021/05/18 12:36:56;;;;;;;0.55;0.55;;;13.80;86.00;;;;;;5055561;28;20481;-66
2021/05/18 12:39:30;;;;;;;1.23;0.73;;;13.70;90.10;;;;;;5073763;28;20430;-66
2021/05/18 12:42:02;;;;;;;0.90;0.80;;;13.80;93.30;;;;;;5075134;28;20021;-66
2021/05/18 12:44:33;;;;;;;1.42;0.73;;;14.00;94.60;;;;;;5072317;28;20023;-65
2021/05/18 12:47:06;;;;;;;1.90;0.65;;;14.30;97.20;;;;;;5062328;28;20043;-66
2021/05/18 12:49:36;;;;;;;1.48;0.70;;;14.30;87.80;;;;;;5074786;28;20784;-66
2021/05/18 12:52:09;;;;;;;2.83;1.13;;;14.30;88.20;;;;;;5075634;28;20021;-66
2021/05/18 12:54:39;;;;;;;0.55;0.50;;;14.50;91.00;;;;;;5075083;28;20042;-66
2021/05/18 12:57:08;;;;;;;1.80;0.63;;;14.50;90.90;;;;;;5059559;28;20029;-66
2021/05/18 12:59:36;;;;;;;1.35;0.82;;;14.60;84.30;;;;;;5076195;28;20024;-66
2021/05/18 13:02:02;;;;;;;0.57;0.43;;;14.70;85.60;;;;;;5076096;28;20441;-66
2021/05/18 13:04:34;;;;;;;0.45;0.40;;;14.80;89.00;;;;;;5076117;28;20027;-66
2021/05/18 13:07:00;;;;;;;0.60;0.60;;;14.90;90.70;;;;;;5073426;28;20035;-66
2021/05/18 13:09:31;;;;;;;0.95;0.47;;;14.90;84.60;;;;;;5075175;28;20017;-66
2021/05/18 13:12:14;;;;;;;1.13;0.50;;;14.70;83.30;;;;;;5082273;28;20035;-66
2021/05/18 13:15:00;;;;;;;1.05;0.65;;;14.80;86.70;;;;;;5084751;28;20056;-66
2021/05/18 13:17:28;;;;;;;0.85;0.70;;;14.90;80.00;;;;;;5076459;28;20090;-66
2021/05/18 13:19:58;;;;;;;1.77;0.73;;;15.00;83.50;;;;;;5058477;28;20123;-66
2021/05/18 13:22:31;;;;;;;6.22;3.47;;;15.30;91.30;;;;;;5076682;28;20041;-66
2021/05/18 13:27:58;;;;;;;1.75;0.98;;;15.50;82.50;;;;;;5036488;28;20035;-66
2021/05/18 13:30:29;;;;;;;1.13;0.95;;;15.50;82.00;;;;;;5076504;28;20051;-66
2021/05/18 13:32:58;;;;;;;2.25;1.17;;;15.40;79.70;;;;;;5073608;28;20048;-66
2021/05/18 13:35:31;;;;;;;1.00;0.90;;;15.00;76.30;;;;;;5071931;28;20056;-66
2021/05/18 13:37:58;;;;;;;1.15;0.82;;;14.70;80.70;;;;;;5075289;28;20040;-66
2021/05/18 13:40:28;;;;;;;2.10;1.20;;;14.40;80.40;;;;;;5073123;28;20040;-66
2021/05/18 13:42:54;;;;;;;2.25;0.90;;;14.40;87.10;;;;;;5075560;28;20025;-66
2021/05/18 13:45:25;;;;;;;1.83;1.00;;;14.40;90.10;;;;;;5071863;28;20031;-66
2021/05/18 13:47:55;;;;;;;1.20;0.90;;;14.40;91.40;;;;;;5075490;28;20024;-66
2021/05/18 13:50:27;;;;;;;1.85;0.93;;;14.40;91.20;;;;;;5055681;28;20128;-66
2021/05/18 13:52:54;;;;;;;1.67;0.85;;;14.40;90.00;;;;;;5072653;28;20058;-66
2021/05/18 13:55:21;;;;;;;1.20;0.70;;;14.20;85.10;;;;;;5073814;28;20031;-66
2021/05/18 13:57:50;;;;;;;0.75;0.73;;;14.10;85.00;;;;;;5074106;28;20085;-66
2021/05/18 14:00:24;;;;;;;1.88;0.73;;;14.20;83.10;;;;;;5075054;28;20025;-66
2021/05/18 14:02:52;;;;;;;1.35;0.90;;;14.10;81.80;;;;;;5060834;28;20036;-65
2021/05/18 14:05:19;;;;;;;1.35;0.65;;;14.10;84.70;;;;;;5076032;28;20024;-65
2021/05/18 14:11:04;;;;;;;2.92;0.90;;;14.20;82.90;;;;;;5075133;28;20025;-65
2021/05/18 14:13:32;;;;;;;0.70;0.70;;;13.80;86.60;;;;;;5074483;28;20024;-65
2021/05/18 14:15:58;;;;;;;0.80;0.70;;;13.50;84.00;;;;;;5073971;28;20032;-65
2021/05/18 14:18:26;;;;;;;0.70;0.70;;;13.30;89.20;;;;;;5065988;28;20070;-65
2021/05/18 14:20:52;;;;;;;1.90;0.80;;;13.10;89.90;;;;;;5075533;28;20047;-66
2021/05/18 14:23:31;;;;;;;1.17;0.60;;;12.80;96.30;;;;;;5073376;28;20055;-66
2021/05/18 14:25:57;;;;;;;1.90;1.00;;;12.70;99.10;;;;;;5075397;28;20037;-65
2021/05/18 14:28:25;;;;;;;1.17;0.60;;;12.50;99.10;;;;;;5073881;28;20034;-66
2021/05/18 14:30:50;;;;;;;0.75;0.75;;;12.50;99.90;;;;;;5079094;28;20442;-65
2021/05/18 14:33:18;;;;;;;0.60;0.60;;;12.40;98.90;;;;;;5073411;28;20111;-66
2021/05/18 14:35:44;;;;;;;1.40;0.60;;;12.50;99.90;;;;;;5074802;28;20397;-66
2021/05/18 14:46:11;;;;;;;0.73;0.50;;;12.60;97.90;;;;;;5078235;28;20050;-66
2021/05/18 14:56:43;;;;;;;0.80;0.40;;;12.60;90.70;;;;;;5077316;28;20036;-67
2021/05/18 14:59:09;;;;;;;1.33;0.52;;;12.70;91.90;;;;;;5077712;28;20112;-67
2021/05/18 15:01:36;;;;;;;1.05;0.60;;;12.80;93.60;;;;;;5075154;28;20043;-67
2021/05/18 15:04:02;;;;;;;1.65;0.70;;;12.80;94.90;;;;;;5077526;28;20032;-68
2021/05/18 15:06:31;;;;;;;0.50;0.50;;;12.90;94.10;;;;;;5078368;28;20078;-67
2021/05/18 15:08:56;;;;;;;0.90;0.60;;;12.90;90.90;;;;;;5075976;28;20024;-67
2021/05/18 15:11:22;;;;;;;0.70;0.45;;;13.00;92.00;;;;;;5075436;28;20020;-67
2021/05/18 15:13:47;;;;;;;0.60;0.60;;;13.00;90.00;;;;;;5077439;28;20373;-67
2021/05/18 15:16:15;;;;;;;0.73;0.60;;;13.00;86.20;;;;;;5076076;28;20032;-67
2021/05/18 15:18:44;;;;;;;1.10;0.60;;;13.20;93.10;;;;;;5079707;28;20058;-67
2021/05/18 15:21:10;;;;;;;1.27;0.60;;;13.20;90.60;;;;;;5079384;28;20472;-67
2021/05/18 15:23:35;;;;;;;2.63;1.40;;;13.30;89.70;;;;;;5077751;28;20061;-66
2021/05/18 15:26:01;;;;;;;4.50;2.38;;;13.50;89.70;;;;;;5080011;28;20093;-66
2021/05/18 15:28:31;;;;;;;0.80;0.80;;;13.70;90.20;;;;;;5078307;28;20021;-66
2021/05/18 15:30:59;;;;;;;1.08;0.77;;;13.90;87.00;;;;;;5078643;28;20027;-67
2021/05/18 15:33:28;;;;;;;1.42;0.80;;;14.10;92.50;;;;;;5094357;28;20111;-67
2021/05/18 15:35:56;;;;;;;1.90;0.88;;;14.40;90.00;;;;;;5078641;28;20207;-65
2021/05/18 15:38:23;;;;;;;1.60;0.70;;;14.50;84.30;;;;;;5080876;28;20028;-65
2021/05/18 15:40:49;;;;;;;0.73;0.60;;;14.60;90.00;;;;;;5079561;28;20468;-66
2021/05/18 15:43:15;;;;;;;0.85;0.75;;;14.70;77.70;;;;;;5080584;28;20040;-68
2021/05/18 15:45:40;;;;;;;2.17;0.60;;;14.90;86.30;;;;;;5073273;28;20035;-67
2021/05/18 15:48:09;;;;;;;1.55;0.70;;;14.80;72.60;;;;;;5077424;28;20024;-68
2021/05/18 15:50:37;;;;;;;1.48;0.73;;;14.60;70.30;;;;;;5079277;28;20025;-67
2021/05/18 15:53:07;;;;;;;1.48;0.60;;;14.60;77.90;;;;;;5079373;28;20035;-67
2021/05/18 15:55:33;;;;;;;0.60;0.60;;;14.50;77.40;;;;;;5078178;28;20069;-67
2021/05/18 15:58:03;;;;;;;1.77;0.80;;;14.40;74.60;;;;;;5079041;28;20584;-67
2021/05/18 16:00:32;;;;;;;0.60;0.60;;;14.40;78.00;;;;;;5080315;28;20032;-66
2021/05/18 16:02:57;;;;;;;2.10;1.40;;;14.40;77.00;;;;;;5078199;28;20020;-67
2021/05/18 16:05:23;;;;;;;0.93;0.80;;;14.50;81.20;;;;;;5076119;28;20032;-67
2021/05/18 16:07:53;;;;;;;1.08;0.70;;;14.70;82.90;;;;;;5078548;28;20354;-67
2021/05/18 16:10:19;;;;;;;0.47;0.47;;;14.70;80.50;;;;;;5076783;28;20043;-67
2021/05/18 16:12:45;;;;;;;2.08;0.80;;;14.80;78.80;;;;;;5075772;28;20028;-67
2021/05/18 16:15:13;;;;;;;0.55;0.50;;;14.90;79.20;;;;;;5077056;28;20035;-67
2021/05/18 16:17:39;;;;;;;1.00;0.70;;;14.80;73.30;;;;;;5043604;28;20024;-67
2021/05/18 16:20:05;;;;;;;1.23;0.73;;;14.90;82.00;;;;;;5067041;28;20031;-67
2021/05/18 16:22:33;;;;;;;1.35;0.70;;;14.90;79.10;;;;;;5077800;28;20086;-67
2021/05/18 16:25:00;;;;;;;0.50;0.45;;;14.90;77.60;;;;;;5074828;28;20032;-67
2021/05/18 16:27:32;;;;;;;1.40;0.70;;;14.90;80.60;;;;;;5073994;28;20076;-65
2021/05/18 16:30:00;;;;;;;1.55;0.95;;;14.90;79.20;;;;;;5049066;28;20041;-67
2021/05/18 16:32:28;;;;;;;2.08;1.00;;;14.80;77.40;;;;;;5078149;28;20020;-67
2021/05/18 16:34:53;;;;;;;1.63;0.90;;;14.80;78.50;;;;;;5076230;28;20280;-67
2021/05/18 16:37:19;;;;;;;2.53;1.30;;;14.90;81.20;;;;;;5079200;28;20032;-67
2021/05/18 16:39:47;;;;;;;1.60;1.20;;;14.80;74.70;;;;;;5077862;28;20532;-67
2021/05/18 16:42:17;;;;;;;1.55;0.85;;;14.80;75.80;;;;;;5077180;28;20036;-64
2021/05/18 16:44:43;;;;;;;0.90;0.80;;;14.90;76.50;;;;;;5077602;28;20462;-65
2021/05/18 16:47:11;;;;;;;1.50;0.82;;;14.90;78.90;;;;;;5074863;28;20039;-66
2021/05/18 16:49:36;;;;;;;1.45;0.90;;;15.00;80.50;;;;;;5076476;28;20128;-64
2021/05/18 16:52:03;;;;;;;1.55;1.00;;;15.00;77.70;;;;;;5075724;28;20112;-68
2021/05/18 16:54:31;;;;;;;1.13;0.93;;;15.00;75.40;;;;;;5076351;28;20438;-66
2021/05/18 16:56:59;;;;;;;0.70;0.70;;;15.00;80.30;;;;;;5075930;28;20101;-67
2021/05/18 16:59:24;;;;;;;1.98;0.93;;;15.10;79.70;;;;;;5075356;28;20020;-64
2021/05/18 17:01:50;;;;;;;1.38;0.90;;;15.20;85.20;;;;;;5077608;28;20598;-65
2021/05/18 17:04:18;;;;;;;1.13;1.00;;;15.30;81.60;;;;;;5075146;28;20568;-65
2021/05/18 17:06:49;;;;;;;1.55;1.23;;;15.30;77.60;;;;;;5077283;28;20031;-67
2021/05/18 17:09:15;;;;;;;2.22;1.00;;;15.40;83.40;;;;;;5076204;28;20024;-68
2021/05/18 17:11:43;;;;;;;1.70;1.00;;;15.40;81.60;;;;;;5073891;28;20469;-64
2021/05/18 17:14:14;;;;;;;1.50;0.93;;;15.40;81.70;;;;;;5077910;28;20057;-65
2021/05/18 17:16:44;;;;;;;2.22;1.20;;;15.40;80.10;;;;;;5073421;28;20042;-64
2021/05/18 17:19:10;;;;;;;2.40;1.30;;;15.30;77.90;;;;;;5079260;28;20031;-64
2021/05/18 17:21:36;;;;;;;2.55;1.40;;;15.20;77.10;;;;;;5074406;28;20033;-64
2021/05/18 17:24:01;;;;;;;5.32;1.70;;;15.20;80.40;;;;;;5055318;28;20028;-65
2021/05/18 17:26:27;;;;;;;2.97;1.40;;;15.10;80.00;;;;;;5076668;28;20027;-65
2021/05/18 17:28:55;;;;;;;2.20;1.48;;;15.00;78.70;;;;;;5074854;28;20085;-65
2021/05/18 17:31:21;;;;;;;2.28;1.48;;;14.90;78.80;;;;;;5078662;28;20449;-65
2021/05/18 17:33:46;;;;;;;1.98;1.30;;;14.80;81.20;;;;;;5076022;28;20024;-65
2021/05/18 17:36:12;;;;;;;3.58;1.40;;;14.70;79.50;;;;;;5076851;28;20090;-67
2021/05/18 17:38:38;;;;;;;1.63;1.10;;;14.50;75.80;;;;;;5074316;28;20043;-65
2021/05/18 17:41:04;;;;;;;1.45;0.90;;;14.30;77.30;;;;;;5073424;28;20032;-64
2021/05/18 17:43:30;;;;;;;2.88;1.05;;;14.20;77.80;;;;;;5076352;28;20088;-66
2021/05/18 17:45:58;;;;;;;2.92;1.10;;;14.00;78.60;;;;;;5077017;28;20505;-65
2021/05/18 17:48:26;;;;;;;1.67;1.08;;;13.90;82.00;;;;;;5076468;28;20902;-67
2021/05/18 17:50:54;;;;;;;2.50;0.85;;;13.90;83.90;;;;;;5076283;28;20024;-67
2021/05/18 17:53:19;;;;;;;4.65;1.20;;;13.70;85.00;;;;;;5077101;28;20035;-68
2021/05/18 17:55:45;;;;;;;2.00;1.00;;;13.70;89.10;;;;;;5074219;28;20024;-68
2021/05/18 17:58:15;;;;;;;3.10;1.40;;;13.60;90.50;;;;;;5058969;28;20192;-67
2021/05/18 18:00:41;;;;;;;1.70;1.20;;;13.50;91.70;;;;;;5075956;28;20036;-67
2021/05/18 18:03:09;;;;;;;1.80;1.25;;;13.40;92.20;;;;;;5072563;28;20028;-67